createdAt,value
2022-11-19T00:01:54.746Z,15.70
2022-11-19T00:04:26.682Z,14.10
2022-11-19T00:06:58.771Z,15.53
2022-11-19T00:09:30.826Z,16.30
2022-11-19T00:12:21.795Z,17.97
2022-11-19T00:14:53.670Z,19.63
2022-11-19T00:17:25.629Z,15.80
2022-11-19T00:19:57.524Z,16.43
2022-11-19T00:22:29.390Z,16.53
2022-11-19T00:25:01.334Z,15.77
2022-11-19T00:27:33.538Z,16.77
2022-11-19T00:30:19.926Z,18.83
2022-11-19T00:32:59.600Z,18.73
2022-11-19T00:35:32.311Z,15.50
2022-11-19T00:38:04.302Z,14.57
2022-11-19T00:40:36.136Z,16.03
2022-11-19T00:43:26.307Z,16.50
2022-11-19T00:45:58.258Z,14.60
2022-11-19T00:48:30.345Z,14.87
2022-11-19T00:51:02.724Z,14.70
2022-11-19T00:53:35.651Z,17.97
2022-11-19T00:56:11.989Z,15.40
2022-11-19T00:58:44.568Z,16.03
2022-11-19T01:01:20.399Z,15.60
2022-11-19T01:03:53.819Z,16.93
2022-11-19T01:06:26.574Z,16.90
2022-11-19T01:08:58.974Z,16.63
2022-11-19T01:11:34.481Z,17.00
2022-11-19T01:14:07.518Z,18.33
2022-11-19T01:16:41.896Z,18.17
2022-11-19T01:19:16.643Z,17.13
2022-11-19T01:21:48.869Z,19.13
2022-11-19T01:24:20.758Z,17.60
2022-11-19T01:26:52.648Z,17.70
2022-11-19T01:29:24.552Z,17.73
2022-11-19T01:31:56.501Z,18.83
2022-11-19T01:34:28.536Z,17.20
2022-11-19T01:37:00.442Z,18.83
2022-11-19T01:39:32.344Z,18.30
2022-11-19T01:42:04.442Z,16.27
2022-11-19T01:45:04.146Z,18.27
2022-11-19T01:47:36.087Z,17.07
2022-11-19T01:50:08.222Z,17.73
2022-11-19T01:52:40.951Z,17.43
2022-11-19T01:55:13.716Z,17.10
2022-11-19T01:57:54.070Z,16.40
2022-11-19T02:00:27.359Z,16.50
2022-11-19T02:02:59.566Z,17.07
2022-11-19T02:05:31.847Z,16.87
2022-11-19T02:08:08.946Z,17.17
2022-11-19T02:11:04.051Z,17.40
2022-11-19T02:14:31.795Z,16.47
2022-11-19T02:17:23.881Z,16.67
2022-11-19T02:20:39.967Z,15.40
2022-11-19T02:23:23.878Z,16.43
2022-11-19T02:26:17.549Z,15.60
2022-11-19T02:29:32.725Z,15.67
2022-11-19T02:32:33.074Z,14.23
2022-11-19T02:35:16.477Z,14.13
2022-11-19T02:38:01.266Z,14.53
2022-11-19T02:40:42.958Z,13.47
2022-11-19T02:43:25.471Z,13.40
2022-11-19T02:46:15.042Z,13.03
2022-11-19T02:48:52.547Z,13.13
2022-11-19T02:51:24.626Z,13.37
2022-11-19T02:53:58.326Z,12.30
2022-11-19T02:56:55.043Z,12.13
2022-11-19T02:59:57.603Z,11.37
2022-11-19T03:03:06.338Z,11.33
2022-11-19T03:05:44.022Z,10.67
2022-11-19T03:08:16.551Z,10.37
2022-11-19T03:11:26.123Z,10.40
2022-11-19T03:14:27.913Z,11.20
2022-11-19T03:17:17.291Z,10.07
2022-11-19T03:20:15.723Z,10.53
2022-11-19T03:23:31.931Z,10.17
2022-11-19T03:26:31.612Z,11.10
2022-11-19T03:29:09.750Z,11.27
2022-11-19T03:31:51.211Z,10.90
2022-11-19T03:34:27.589Z,11.37
2022-11-19T03:37:05.049Z,12.80
2022-11-19T03:39:39.193Z,12.13
2022-11-19T03:42:16.204Z,13.07
2022-11-19T03:44:59.556Z,13.87
2022-11-19T03:47:36.885Z,13.93
2022-11-19T03:51:09.999Z,14.37
2022-11-19T03:53:42.100Z,13.77
2022-11-19T03:56:20.525Z,14.40
2022-11-19T03:58:54.018Z,15.17
2022-11-19T04:01:26.394Z,15.30
2022-11-19T04:04:17.163Z,14.33
2022-11-19T04:06:49.169Z,15.53
2022-11-19T04:09:21.446Z,15.30
2022-11-19T04:14:24.480Z,15.13
2022-11-19T04:16:57.148Z,15.30
2022-11-19T04:19:29.132Z,15.57
2022-11-19T04:22:01.054Z,15.03
2022-11-19T04:24:33.153Z,15.77
2022-11-19T04:27:05.099Z,15.37
2022-11-19T04:29:37.041Z,16.47
2022-11-19T04:32:09.945Z,16.77
2022-11-19T04:34:42.006Z,16.00
2022-11-19T04:37:13.907Z,16.20
2022-11-19T04:39:45.804Z,16.73
2022-11-19T04:42:17.689Z,17.23
2022-11-19T04:44:49.620Z,17.50
2022-11-19T04:47:21.501Z,17.70
2022-11-19T04:49:53.411Z,18.73
2022-11-19T04:52:25.321Z,18.73
2022-11-19T04:54:57.231Z,17.47
2022-11-19T04:57:29.179Z,18.03
2022-11-19T05:00:01.090Z,18.77
2022-11-19T05:02:33.485Z,18.50
2022-11-19T05:05:06.051Z,18.90
2022-11-19T05:07:38.106Z,18.37
2022-11-19T05:10:10.588Z,18.07
2022-11-19T05:12:42.473Z,19.10
2022-11-19T05:15:14.485Z,18.97
2022-11-19T05:17:46.506Z,19.33
2022-11-19T05:20:18.495Z,19.90
2022-11-19T05:22:50.350Z,19.53
2022-11-19T05:25:22.293Z,20.10
2022-11-19T05:27:54.275Z,19.47
2022-11-19T05:30:26.310Z,19.77
2022-11-19T05:32:58.232Z,19.40
2022-11-19T05:35:30.207Z,20.17
2022-11-19T05:38:02.249Z,20.13
2022-11-19T05:40:34.156Z,20.13
2022-11-19T05:43:09.125Z,19.70
2022-11-19T05:45:40.989Z,19.63
2022-11-19T05:48:12.908Z,19.13
2022-11-19T05:50:44.816Z,19.20
2022-11-19T05:53:16.703Z,20.43
2022-11-19T05:55:48.616Z,20.10
2022-11-19T05:58:20.487Z,20.93
2022-11-19T06:00:56.530Z,21.47
2022-11-19T06:03:28.436Z,22.10
2022-11-19T06:06:00.512Z,21.17
2022-11-19T06:08:32.416Z,21.07
2022-11-19T06:11:04.869Z,20.80
2022-11-19T06:13:36.763Z,22.43
2022-11-19T06:16:08.667Z,22.70
2022-11-19T06:18:40.523Z,21.10
2022-11-19T06:21:12.550Z,23.43
2022-11-19T06:23:44.458Z,23.37
2022-11-19T06:26:24.665Z,22.90
2022-11-19T06:28:57.148Z,23.97
2022-11-19T06:31:29.354Z,23.77
2022-11-19T06:34:01.352Z,24.10
2022-11-19T06:36:40.179Z,24.20
2022-11-19T06:39:13.842Z,23.83
2022-11-19T06:41:48.663Z,23.73
2022-11-19T06:44:20.647Z,24.37
2022-11-19T06:46:52.506Z,23.40
2022-11-19T06:49:24.569Z,24.57
2022-11-19T06:51:56.687Z,24.17
2022-11-19T06:54:28.639Z,24.20
2022-11-19T06:57:00.727Z,25.30
2022-11-19T06:59:32.669Z,23.33
2022-11-19T07:02:05.211Z,25.50
2022-11-19T07:04:37.198Z,25.17
2022-11-19T07:07:10.608Z,24.70
2022-11-19T07:09:42.497Z,25.10
2022-11-19T07:12:14.438Z,33.17
2022-11-19T07:14:46.385Z,28.63
2022-11-19T07:17:18.421Z,25.77
2022-11-19T07:19:50.387Z,27.23
2022-11-19T07:22:22.350Z,27.43
2022-11-19T07:24:54.295Z,26.60
2022-11-19T07:27:26.194Z,26.50
2022-11-19T07:29:58.116Z,28.63
2022-11-19T07:32:29.995Z,27.60
2022-11-19T07:35:02.207Z,26.83
2022-11-19T07:37:34.080Z,25.87
2022-11-19T07:40:06.951Z,25.53
2022-11-19T07:42:59.257Z,26.83
2022-11-19T07:45:31.142Z,24.53
2022-11-19T07:48:03.096Z,25.63
2022-11-19T07:50:35.001Z,27.90
2022-11-19T07:53:08.306Z,26.90
2022-11-19T07:55:40.414Z,26.80
2022-11-19T07:58:12.441Z,29.10
2022-11-19T08:00:44.424Z,25.70
2022-11-19T08:03:16.387Z,26.53
2022-11-19T08:05:49.499Z,27.83
2022-11-19T08:08:21.403Z,25.97
2022-11-19T08:10:53.340Z,26.53
2022-11-19T08:13:25.302Z,25.97
2022-11-19T08:16:13.557Z,26.90
2022-11-19T08:18:46.001Z,27.83
2022-11-19T08:21:17.944Z,28.03
2022-11-19T08:23:49.873Z,26.10
2022-11-19T08:26:22.200Z,26.70
2022-11-19T08:28:54.539Z,27.60
2022-11-19T08:31:26.804Z,26.67
2022-11-19T08:34:01.446Z,26.33
2022-11-19T08:36:33.614Z,24.87
2022-11-19T08:39:06.769Z,27.70
2022-11-19T08:41:57.585Z,26.30
2022-11-19T08:44:29.505Z,27.13
2022-11-19T08:47:01.579Z,27.50
2022-11-19T08:49:33.451Z,24.87
2022-11-19T08:52:05.425Z,27.07
2022-11-19T08:54:37.386Z,27.17
2022-11-19T08:57:09.415Z,25.40
2022-11-19T08:59:41.316Z,23.60
2022-11-19T09:02:13.249Z,25.67
2022-11-19T09:04:45.167Z,25.57
2022-11-19T09:07:17.144Z,25.70
2022-11-19T09:09:49.045Z,24.03
2022-11-19T09:12:20.987Z,28.00
2022-11-19T09:14:52.891Z,26.83
2022-11-19T09:17:24.841Z,23.77
2022-11-19T09:19:56.777Z,24.63
2022-11-19T09:22:28.918Z,24.33
2022-11-19T09:25:00.811Z,22.80
2022-11-19T09:27:32.753Z,23.17
2022-11-19T09:30:07.183Z,23.23
2022-11-19T09:32:39.137Z,23.43
2022-11-19T09:35:11.050Z,25.87
2022-11-19T09:37:43.008Z,25.77
2022-11-19T09:40:23.670Z,22.90
2022-11-19T09:43:27.126Z,24.53
2022-11-19T09:46:14.915Z,23.20
2022-11-19T09:48:50.539Z,23.40
2022-11-19T09:51:30.569Z,23.40
2022-11-19T09:54:18.830Z,23.43
2022-11-19T09:56:59.098Z,23.23
2022-11-19T09:59:40.217Z,25.43
2022-11-19T10:02:21.998Z,24.33
2022-11-19T10:04:54.181Z,24.30
2022-11-19T10:08:08.252Z,23.93
2022-11-19T10:10:57.153Z,22.77
2022-11-19T10:13:54.106Z,26.17
2022-11-19T10:16:47.438Z,24.13
2022-11-19T10:19:32.077Z,23.77
2022-11-19T10:22:27.323Z,23.93
2022-11-19T10:25:18.257Z,23.23
2022-11-19T10:28:17.972Z,22.37
2022-11-19T10:31:05.915Z,23.37
2022-11-19T10:34:10.910Z,24.57
2022-11-19T10:36:53.058Z,21.53
2022-11-19T10:39:35.424Z,22.50
2022-11-19T10:42:28.737Z,23.40
2022-11-19T10:45:24.920Z,22.73
2022-11-19T10:48:11.476Z,20.63
2022-11-19T10:50:43.463Z,22.67
2022-11-19T10:53:26.443Z,23.83
2022-11-19T10:56:04.665Z,24.23
2022-11-19T10:58:58.222Z,23.47
2022-11-19T11:01:37.588Z,21.63
2022-11-19T11:04:24.785Z,20.73
2022-11-19T11:06:58.524Z,21.37
2022-11-19T11:09:39.447Z,20.80
2022-11-19T11:12:45.400Z,21.47
2022-11-19T11:15:27.336Z,22.53
2022-11-19T11:18:04.860Z,20.90
2022-11-19T11:20:40.156Z,23.27
2022-11-19T11:23:20.003Z,20.93
2022-11-19T11:26:08.431Z,20.10
2022-11-19T11:29:02.375Z,19.70
2022-11-19T11:31:42.998Z,18.57
2022-11-19T11:34:43.751Z,19.63
2022-11-19T11:37:16.107Z,17.53
2022-11-19T11:39:53.471Z,18.53
2022-11-19T11:42:29.158Z,17.37
2022-11-19T11:45:02.157Z,17.60
2022-11-19T11:47:42.117Z,17.47
2022-11-19T11:50:27.795Z,17.00
2022-11-19T11:53:09.882Z,18.70
2022-11-19T11:55:41.962Z,18.10
2022-11-19T11:58:31.930Z,17.80
2022-11-19T12:01:16.201Z,16.47
2022-11-19T12:03:59.486Z,16.23
2022-11-19T12:06:47.942Z,16.93
2022-11-19T12:09:55.670Z,16.20
2022-11-19T12:13:00.364Z,15.43
2022-11-19T12:16:02.546Z,15.20
2022-11-19T12:18:39.330Z,15.93
2022-11-19T12:21:21.250Z,14.47
2022-11-19T12:24:23.653Z,15.73
2022-11-19T12:27:30.472Z,14.90
2022-11-19T12:30:24.451Z,15.80
2022-11-19T12:33:05.127Z,14.23
2022-11-19T12:36:07.892Z,13.67
2022-11-19T12:39:06.815Z,15.50
2022-11-19T12:42:04.788Z,13.60
2022-11-19T12:45:00.723Z,13.67
2022-11-19T12:48:14.697Z,13.70
2022-11-19T12:51:05.057Z,13.43
2022-11-19T12:53:58.608Z,13.83
2022-11-19T12:56:48.678Z,13.97
2022-11-19T12:59:49.713Z,14.47
2022-11-19T13:02:36.518Z,13.80
2022-11-19T13:05:22.796Z,14.03
2022-11-19T13:08:12.127Z,13.30
2022-11-19T13:10:58.637Z,13.97
2022-11-19T13:13:34.189Z,13.43
2022-11-19T13:16:16.502Z,13.67
2022-11-19T13:18:53.991Z,13.43
2022-11-19T13:22:24.457Z,15.10
2022-11-19T13:25:02.957Z,13.63
2022-11-19T13:27:37.066Z,13.10
2022-11-19T13:30:18.867Z,14.30
2022-11-19T13:33:39.897Z,12.70
2022-11-19T13:36:31.338Z,13.60
2022-11-19T13:39:36.173Z,14.00
2022-11-19T13:42:29.285Z,12.93
2022-11-19T13:45:01.662Z,12.83
2022-11-19T13:48:05.712Z,13.63
2022-11-19T13:50:45.377Z,13.33
2022-11-19T13:53:34.978Z,14.17
2022-11-19T13:56:15.576Z,12.60
2022-11-19T13:58:56.306Z,13.13
2022-11-19T14:01:44.057Z,13.33
2022-11-19T14:04:34.071Z,14.40
2022-11-19T14:07:39.311Z,12.40
2022-11-19T14:10:19.234Z,12.00
2022-11-19T14:13:18.899Z,12.73
2022-11-19T14:16:44.675Z,12.50
2022-11-19T14:19:22.029Z,11.97
2022-11-19T14:22:13.715Z,12.93
2022-11-19T14:25:04.279Z,13.30
2022-11-19T14:27:36.273Z,13.27
2022-11-19T14:30:21.089Z,12.93
2022-11-19T14:32:53.159Z,13.77
2022-11-19T14:35:37.161Z,13.00
2022-11-19T14:38:34.951Z,17.57
2022-11-19T14:41:28.873Z,14.00
2022-11-19T14:44:33.519Z,12.87
2022-11-19T14:47:27.362Z,11.80
2022-11-19T14:50:25.922Z,12.27
2022-11-19T14:53:02.287Z,11.77
2022-11-19T14:55:35.063Z,11.63
2022-11-19T14:58:22.970Z,12.37
2022-11-19T15:01:20.978Z,12.27
2022-11-19T15:04:00.805Z,12.43
2022-11-19T15:06:37.708Z,13.47
2022-11-19T15:09:11.712Z,11.53
2022-11-19T15:12:01.612Z,11.23
2022-11-19T15:14:38.441Z,11.60
2022-11-19T15:17:11.221Z,11.80
2022-11-19T15:20:01.074Z,11.43
2022-11-19T15:23:06.190Z,12.27
2022-11-19T15:25:46.751Z,10.93
2022-11-19T15:28:32.347Z,11.33
2022-11-19T15:31:40.554Z,11.03
2022-11-19T15:34:49.006Z,10.80
2022-11-19T15:37:35.902Z,11.60
2022-11-19T15:40:15.710Z,11.63
2022-11-19T15:43:03.714Z,11.30
2022-11-19T15:46:05.885Z,10.50
2022-11-19T15:48:56.132Z,10.93
2022-11-19T15:51:32.119Z,18.95
2022-11-19T15:54:07.246Z,14.53
2022-11-19T15:56:48.330Z,14.40
2022-11-19T15:59:21.078Z,14.03
2022-11-19T16:02:02.581Z,13.33
2022-11-19T16:04:39.076Z,12.77
2022-11-19T16:07:11.617Z,14.10
2022-11-19T16:09:43.624Z,12.47
2022-11-19T16:12:40.641Z,12.37
2022-11-19T16:15:44.410Z,11.93
2022-11-19T16:18:19.953Z,13.23
2022-11-19T16:20:52.863Z,13.70
2022-11-19T16:23:26.766Z,13.50
2022-11-19T16:26:02.725Z,12.70
2022-11-19T16:28:35.431Z,14.00
2022-11-19T16:31:07.396Z,13.87
2022-11-19T16:33:41.117Z,12.43
2022-11-19T16:36:19.753Z,12.10
2022-11-19T16:38:53.806Z,12.40
2022-11-19T16:41:45.216Z,12.33
2022-11-19T16:44:21.527Z,11.53
2022-11-19T16:46:53.994Z,13.70
2022-11-19T16:50:31.694Z,12.20
2022-11-19T16:53:06.536Z,12.57
2022-11-19T16:55:42.992Z,11.97
2022-11-19T16:58:25.349Z,12.67
2022-11-19T17:00:59.556Z,13.67
2022-11-19T17:03:37.005Z,12.60
2022-11-19T17:06:24.168Z,12.57
2022-11-19T17:09:02.103Z,11.37
2022-11-19T17:12:07.022Z,11.97
2022-11-19T17:14:58.302Z,11.23
2022-11-19T17:17:40.369Z,11.03
2022-11-19T17:20:39.197Z,11.17
2022-11-19T17:23:21.592Z,11.23
2022-11-19T17:26:05.310Z,11.17
2022-11-19T17:28:45.178Z,11.50
2022-11-19T17:31:23.467Z,11.23
2022-11-19T17:34:19.753Z,10.70
2022-11-19T17:36:51.964Z,11.70
2022-11-19T17:39:25.852Z,11.73
2022-11-19T17:42:33.216Z,11.27
2022-11-19T17:45:10.785Z,13.00
2022-11-19T17:47:43.680Z,12.30
2022-11-19T17:50:15.694Z,11.10
2022-11-19T17:52:47.562Z,11.73
2022-11-19T17:55:25.772Z,10.93
2022-11-19T17:57:57.676Z,10.97
2022-11-19T18:00:29.676Z,11.10
2022-11-19T18:03:03.407Z,10.67
2022-11-19T18:05:38.576Z,10.47
2022-11-19T18:08:10.481Z,11.50
2022-11-19T18:10:47.446Z,11.17
2022-11-19T18:13:25.852Z,10.97
2022-11-19T18:15:58.127Z,11.70
2022-11-19T18:18:30.107Z,11.37
2022-11-19T18:21:02.541Z,10.17
2022-11-19T18:23:34.527Z,10.43
2022-11-19T18:26:10.422Z,11.57
2022-11-19T18:28:44.900Z,11.00
2022-11-19T18:31:22.814Z,10.40
2022-11-19T18:33:56.587Z,10.67
2022-11-19T18:36:28.585Z,9.40
2022-11-19T18:39:00.573Z,10.47
2022-11-19T18:41:32.559Z,10.53
2022-11-19T18:44:23.731Z,10.67
2022-11-19T18:46:55.643Z,10.80
2022-11-19T18:49:27.735Z,9.87
2022-11-19T18:51:59.789Z,10.60
2022-11-19T18:54:32.055Z,10.10
2022-11-19T18:57:04.168Z,9.53
2022-11-19T18:59:36.210Z,10.30
2022-11-19T19:02:10.839Z,10.23
2022-11-19T19:04:42.936Z,11.13
2022-11-19T19:07:15.491Z,10.63
2022-11-19T19:09:47.547Z,11.70
2022-11-19T19:12:19.606Z,11.97
2022-11-19T19:14:51.907Z,10.60
2022-11-19T19:17:23.796Z,11.60
2022-11-19T19:19:55.693Z,12.37
2022-11-19T19:22:29.462Z,16.10
2022-11-19T19:25:01.385Z,15.10
2022-11-19T19:27:33.362Z,12.30
2022-11-19T19:30:06.204Z,12.83
2022-11-19T19:32:38.304Z,10.67
2022-11-19T19:35:10.363Z,11.53
2022-11-19T19:37:42.499Z,9.80
2022-11-19T19:40:14.572Z,10.40
2022-11-19T19:42:46.456Z,9.63
2022-11-19T19:45:18.407Z,10.60
2022-11-19T19:47:50.371Z,9.70
2022-11-19T19:50:22.231Z,10.13
2022-11-19T19:52:54.208Z,10.23
2022-11-19T19:55:26.466Z,10.17
2022-11-19T19:58:00.013Z,10.60
2022-11-19T20:00:31.959Z,13.27
2022-11-19T20:03:03.966Z,11.30
2022-11-19T20:05:35.860Z,11.13
2022-11-19T20:08:07.772Z,10.80
2022-11-19T20:10:39.651Z,11.00
2022-11-19T20:13:32.048Z,10.53
2022-11-19T20:16:06.116Z,10.73
2022-11-19T20:18:38.911Z,10.40
2022-11-19T20:21:21.405Z,11.53
2022-11-19T20:23:55.073Z,9.50
2022-11-19T20:26:30.875Z,9.73
2022-11-19T20:29:06.256Z,9.00
2022-11-19T20:31:38.643Z,10.63
2022-11-19T20:34:12.011Z,8.50
2022-11-19T20:36:44.342Z,9.40
2022-11-19T20:39:16.275Z,11.60
2022-11-19T20:42:06.955Z,11.23
2022-11-19T20:44:38.855Z,10.47
2022-11-19T20:47:10.901Z,10.10
2022-11-19T20:49:42.799Z,9.93
2022-11-19T20:52:17.046Z,9.53
2022-11-19T20:54:51.228Z,9.27
2022-11-19T20:57:23.163Z,9.07
2022-11-19T20:59:55.060Z,9.53
2022-11-19T21:02:27.019Z,8.93
2022-11-19T21:04:59.644Z,8.97
2022-11-19T21:07:32.491Z,8.83
2022-11-19T21:10:08.005Z,9.37
2022-11-19T21:13:00.166Z,9.33
2022-11-19T21:15:36.017Z,9.47
2022-11-19T21:18:07.942Z,10.00
2022-11-19T21:20:39.963Z,9.37
2022-11-19T21:23:11.911Z,9.40
2022-11-19T21:25:43.936Z,9.30
2022-11-19T21:28:15.901Z,9.60
2022-11-19T21:30:52.339Z,9.17
2022-11-19T21:33:26.523Z,10.07
2022-11-19T21:35:59.906Z,10.47
2022-11-19T21:38:31.866Z,9.23
2022-11-19T21:41:04.173Z,9.63
2022-11-19T21:43:36.108Z,9.57
2022-11-19T21:46:08.333Z,9.50
2022-11-19T21:48:40.260Z,10.23
2022-11-19T21:51:12.365Z,9.97
2022-11-19T21:53:44.379Z,9.33
2022-11-19T21:56:16.286Z,9.53
2022-11-19T21:58:48.231Z,9.97
2022-11-19T22:01:20.323Z,9.33
2022-11-19T22:03:52.305Z,9.47
2022-11-19T22:06:24.257Z,9.07
2022-11-19T22:08:56.257Z,10.03
2022-11-19T22:11:31.396Z,9.83
2022-11-19T22:14:07.546Z,9.83
2022-11-19T22:16:40.327Z,10.20
2022-11-19T22:19:12.693Z,9.40
2022-11-19T22:21:44.698Z,13.67
2022-11-19T22:24:16.602Z,13.83
2022-11-19T22:26:48.513Z,12.63
2022-11-19T22:29:20.872Z,11.37
2022-11-19T22:31:53.096Z,9.83
2022-11-19T22:34:25.105Z,10.93
2022-11-19T22:36:57.177Z,10.90
2022-11-19T22:39:29.112Z,10.47
2022-11-19T22:42:01.112Z,10.60
2022-11-19T22:44:33.004Z,11.03
2022-11-19T22:47:04.939Z,9.97
2022-11-19T22:49:36.927Z,10.70
2022-11-19T22:52:08.826Z,11.57
2022-11-19T22:54:41.957Z,10.37
2022-11-19T22:57:14.101Z,10.70
2022-11-19T22:59:46.053Z,10.43
2022-11-19T23:02:17.963Z,11.20
2022-11-19T23:04:49.899Z,9.83
2022-11-19T23:07:21.829Z,12.47
2022-11-19T23:09:53.793Z,10.30
2022-11-19T23:12:44.406Z,10.30
2022-11-19T23:15:16.419Z,9.83
2022-11-19T23:17:48.339Z,9.87
2022-11-19T23:20:20.236Z,10.27
2022-11-19T23:22:52.125Z,10.70
2022-11-19T23:25:24.034Z,10.60
2022-11-19T23:27:55.968Z,9.80
2022-11-19T23:30:27.873Z,9.70
2022-11-19T23:32:59.776Z,10.73
2022-11-19T23:35:35.064Z,10.77
2022-11-19T23:38:06.980Z,10.77
2022-11-19T23:40:39.248Z,11.33
2022-11-19T23:43:11.196Z,11.80
2022-11-19T23:45:43.123Z,10.60
2022-11-19T23:48:17.027Z,10.67
2022-11-19T23:50:49.068Z,10.70
2022-11-19T23:53:20.994Z,10.30
2022-11-19T23:55:52.877Z,10.63
2022-11-19T23:58:25.100Z,10.07
